Historyczne dane pomiarowe

Dodano dane terminowe – wersja testowa.

Dane z okresu 1951-2019

Wersja bazy: 1.34 [2019-03-16, lista zmian], aktualizacja planowana na 2019-04-15

Dane meteo z obszaru Polski uzyskane na podstawie danych udostępnionych przez Instytut Meteorologii i Gospodarki Wodnej – Państwowy Instytut Badawczy.

 

Wybierz Datę:    

       

TemperaturaWilgotnośćWiatrCiśnienieOpadyŚniegCzas trwania zjawisk
 Stacja t tx tn tng RH VA  wxwx mslp ppp RRR   cm mm wxwxwxwxwxwxwx
2019-07-25 18.5 25.1 11.0 9.9 70.1 14.3 3.6 1.3 0.0 0.0- 922.4 0.0 0.0 0.0- 0.0 11.6---- 8.0--
2019-07-24 16.6 20.7 13.7 13.7 84.8 15.8 7.0 1.3 0.0 0.0- 922.6 0.2 0.2 0.0- 0.0 1.8 1.3--- 4.0--
2019-07-23 14.4 19.2 13.7 13.3 92.4 15.2 7.8 1.0 0.0 0.0- 923.6 6.5 5.5 1.0- 0.0 0.0 18.3------
2019-07-22 17.1 21.7 11.9 11.0 74.0 14.0 6.3 1.3 0.0 0.0- 925.5 0.5 0.0 0.5- 0.0 5.6 0.3--- 4.1--
2019-07-21 17.3 27.1 12.6 11.5 81.6 15.7 5.3 1.1 0.0 0.0- 922.6 17.3 17.2 0.1- 0.0 4.2 2.5--- 8.0- 2.3
2019-07-20 17.4 24.1 11.9 11.4 75.4 14.6 6.0 1.1 0.0 0.0- 921.3 0.0 0.0 0.0- 0.0 3.0 0.9--- 3.7- 0.5
2019-07-19 16.1 23.8 8.3 6.8 66.1 11.6 4.6 1.5 0.0 0.0- 919.5 0.2 0.0 0.2- 0.0 8.6 0.6--- 7.0--
2019-07-18 13.9 19.3 7.6 6.2 66.3 10.2 4.6 1.6 0.0 0.0- 917.0 0.0 0.0 0.0- 0.0 7.0---- 9.0--
2019-07-17 13.4 18.2 10.6 10.1 67.5 10.2 5.0 2.0 0.0 0.0- 916.1 0.0 0.0 0.0- 0.0 7.0---- 10.0--
2019-07-16 14.5 20.6 7.9 6.6 65.3 10.5 5.4 2.0 0.0 0.0- 916.1 0.0 0.0 0.0- 0.0 9.8---- 10.0--
2019-07-15 12.6 18.2 7.1 5.7 65.5 9.1 3.9 1.3 0.0 0.0- 916.8 0.0 0.0 0.0- 0.0 11.1---- 8.0--
2019-07-14 12.1 15.6 11.3 11.2 85.1 12.0 7.5 0.9 0.0 0.0- 915.2 1.2 1.2 0.0- 0.0 0.8 5.1------
2019-07-13 13.5 16.8 11.0 10.5 80.8 12.4 7.3 0.9 0.0 0.0- 913.3 18.4 5.3 13.1- 0.0 4.2 3.3--- 2.3- 2.2
2019-07-12 13.5 19.6 5.4 4.1 64.6 9.4 4.4 1.0 0.0 0.0- 915.1 0.0 0.0 0.0- 0.0 7.1---- 12.0--
2019-07-11 9.8 14.2 7.2 6.0 84.4 10.2 4.8 1.4 0.0 0.0- 915.8 5.4 5.4 0.0- 0.0 2.8 2.6--- 3.0- 0.3
2019-07-10 10.7 15.9 8.1 7.5 74.1 9.5 7.1 1.8 0.0 0.0- 917.1 1.4 0.1 1.3- 0.0 1.4 2.8--- 1.8--
2019-07-09 11.3 15.9 5.9 4.7 59.5 7.8 5.9 1.8 0.0 0.0- 917.2 0.3 0.0 0.3- 0.0 5.0 0.4--- 9.0--
2019-07-08 11.4 16.0 7.8 6.2 61.1 8.1 4.8 2.3 0.0 0.0- 916.2 0.0 0.0 0.0- 0.0 4.4---- 3.0--
2019-07-07 19.0 24.2 16.0 15.2 52.4 11.2 4.8 2.0 0.0 0.0- 911.5 1.3 1.3 0.0- 0.0 5.8 1.6------
2019-07-06 19.7 24.5 13.7 12.7 46.4 10.2 4.5 2.0 0.0 0.0- 914.9 0.0 0.0 0.0- 0.0 10.7-------
2019-07-05 16.2 21.4 8.5 7.2 56.3 10.2 6.1 2.3 0.0 0.0- 918.0 0.0 0.0 0.0- 0.0 4.1---- 6.0--
2019-07-04 13.9 20.7 6.2 5.2 54.5 8.3 0.6 1.9 0.0 0.0- 923.0 0.0 0.0 0.0- 0.0 13.8---- 10.0--
2019-07-03 15.1 19.8 10.1 8.6 58.5 9.8 3.9 2.0 0.0 0.0- 922.1 0.0 0.0 0.0- 0.0 12.7---- 5.0--
2019-07-02 19.1 23.0 17.0 16.2 64.5 14.1 6.0 1.9 0.0 0.0- 919.9 0.0 0.0 0.0- 0.0 8.3 1.3------
2019-07-01 22.2 31.2 13.5 12.3 54.4 13.7 3.9 2.3 0.0 0.0- 920.2 3.9 2.7 1.2- 0.0 11.0 0.6--- 3.0- 0.6
2019-06-30 21.8 31.4 12.0 11.1 51.9 12.7 0.0 1.4 0.0 0.0- 922.8 0.0 0.0 0.0- 0.0 13.8---- 7.0--
2019-06-29 16.9 22.5 12.7 12.7 59.0 10.9 5.4 1.5 0.0 0.0- 924.5 0.0 0.0 0.0- 0.0 12.1 0.4--- 5.8--
2019-06-28 14.2 20.0 10.5 9.3 66.5 10.6 4.8 1.9 0.0 0.0- 923.3 0.0 0.0 0.0- 0.0 7.1---- 10.0--
2019-06-27 21.5 26.7 19.0 17.8 59.8 15.4 2.4 2.1 0.0 0.0- 922.3 0.0 0.0 0.0- 0.0 10.7---- 1.0--
2019-06-26 22.9 30.2 14.7 13.5 66.4 17.8 2.8 1.5 0.0 0.0- 927.6 0.0 0.0 0.0- 0.0 13.2---- 7.0--
2019-06-25 20.5 28.2 11.7 10.5 70.8 16.3 1.8 1.3 0.0 0.0- 928.3 0.0 0.0 0.0- 0.0 12.5---- 8.0--
2019-06-24 16.9 20.4 14.9 14.7 83.0 15.8 6.4 1.6 0.0 0.0- 926.0 0.0 0.0 0.0- 0.0 2.6 0.1--- 2.0--
2019-06-23 15.9 18.4 13.9 13.2 90.1 16.3 7.1 1.1 0.0 0.0- 921.9 2.0 0.1 1.9- 0.0 0.1 3.0--- 4.6--
2019-06-22 16.4 20.8 12.6 11.6 87.4 16.3 6.6 1.3 0.0 0.0- 922.6 11.6 11.4 0.2- 0.0 2.3 1.9--- 3.0- 0.2
2019-06-21 17.1 22.0 14.2 14.0 83.1 16.0 6.6 0.9 0.0 0.0- 919.6 0.5 0.5 0.0- 0.0 3.1 1.6--- 6.0- 1.1
2019-06-20 16.2 21.3 14.3 14.3 92.1 17.0 7.3 0.9 0.0 0.0- 916.7 21.0 21.0 0.0- 0.0 1.4 8.1----- 0.9
2019-06-19 16.7 23.7 11.7 10.5 87.3 16.4 7.3 1.0 0.0 0.0- 918.3 16.2 15.7 0.5- 0.0 4.6 4.6----- 2.3
2019-06-18 14.8 20.0 8.7 7.7 86.8 14.7 5.9 1.1 0.0 0.0- 921.7 6.0 6.0 0.0- 0.0 4.2 1.4--- 7.0--
2019-06-17 14.6 18.0 12.1 12.1 85.4 14.2 6.6 1.0 0.0 0.0- 923.5 23.7 23.7 0.0- 0.0 4.4 9.7--- 5.0--
2019-06-16 18.4 26.7 14.5 13.1 79.8 16.5 3.9 1.8 0.0 0.0- 920.3 14.1 7.3 6.8- 0.0 6.7 5.2--- 6.0- 3.7
2019-06-15 22.2 29.0 13.6 11.7 71.6 18.7 3.6 1.3 0.0 0.0- 919.8 1.8 1.8 0.0- 0.0 11.8 0.6--- 8.0--
2019-06-14 22.1 26.6 16.6 15.1 69.8 18.4 5.5 1.3 0.0 0.0- 922.2 0.0 0.0 0.0- 0.0 7.3 0.9--- 3.0- 0.5
2019-06-13 22.6 29.8 14.2 12.9 57.4 14.7 2.9 1.9 0.0 0.0- 919.0 0.0 0.0 0.0- 0.0 13.4-------
2019-06-12 22.9 27.5 16.2 14.4 49.4 13.5 1.6 2.3 0.0 0.0- 918.2 0.0 0.0 0.0- 0.0 13.8-------
2019-06-11 22.2 27.9 12.8 11.2 49.0 12.6 1.0 1.8 0.0 0.0- 918.8 0.0 0.0 0.0- 0.0 13.6-------
2019-06-10 20.3 28.0 11.1 9.7 64.9 14.4 1.5 1.4 0.0 0.0- 921.5 0.0 0.0 0.0- 0.0 13.4---- 7.0--
2019-06-09 17.6 23.3 12.1 11.5 71.9 14.4 3.9 1.6 0.0 0.0- 927.1 0.0 0.0 0.0- 0.0 11.0---- 4.0--
2019-06-08 17.9 25.1 10.9 9.5 71.9 14.1 3.4 1.6 0.0 0.0- 922.7 0.0 0.0 0.0- 0.0 9.7 0.4--- 8.0--
2019-06-07 15.9 22.0 9.7 8.6 85.8 15.5 5.8 0.8 0.0 0.0- 918.8 5.9 5.9 0.0- 0.0 5.5 1.4--- 9.6--
2019-06-06 15.2 20.8 9.4 8.3 78.4 13.2 4.1 1.5 0.0 0.0- 915.9 11.6 11.6 0.0- 0.0 6.1 1.0--- 8.0- 0.1
2019-06-05 16.5 23.8 9.3 7.9 70.9 12.8 3.3 1.3 0.0 0.0- 915.1 0.0 0.0 0.0- 0.0 10.8---- 11.0--
2019-06-04 16.5 23.6 9.9 8.5 72.9 13.3 4.5 1.4 0.0 0.0- 917.9 0.0 0.0 0.0- 0.0 9.6 0.3--- 3.0--
2019-06-03 15.8 22.4 8.3 6.3 73.6 12.9 3.4 2.0 0.0 0.0- 921.0 1.0 0.7 0.3- 0.0 10.7 1.0--- 9.0--
2019-06-02 15.9 21.8 9.6 8.2 74.1 12.9 4.0 1.4 0.0 0.0- 922.6 0.0 0.0 0.0- 0.0 10.5---- 4.0--
2019-06-01 13.2 20.2 6.0 4.5 81.0 12.0 5.8 1.1 0.0 0.0- 924.0 0.3 0.3 0.0- 0.0 2.2 1.0--- 5.0--
2019-05-31 9.5 15.3 5.8 5.8 90.3 10.7 6.4 1.1 0.0 0.0- 925.3 0.0 0.0 0.0- 0.0 1.3 7.2--- 3.0--
2019-05-30 6.9 8.1 6.0 5.9 96.6 9.6 8.0 0.9 0.0 0.0- 923.4 11.5 8.5 3.0- 0.0 0.0 21.8------
2019-05-29 8.8 12.2 7.8 6.9 95.9 10.9 7.6 1.3 0.0 0.0- 916.2 12.3 6.6 5.7- 0.0 0.0 17.2------
2019-05-28 13.2 17.0 11.0 10.2 83.5 12.5 7.0 1.3 0.0 0.0- 909.7 3.8 3.8 0.0- 0.0 0.7 4.1------
2019-05-27 14.9 20.8 7.6 6.5 68.3 11.1 5.8 1.5 0.0 0.0- 915.2 0.3 0.0 0.3- 0.0 5.3 3.2--- 7.0--
121.0 ms

 

Źródłem pochodzenia danych jest Instytut Meteorologii i Gospodarki Wodnej – Państwowy Instytut Badawczy. Dane Instytutu Meteorologii i Gospodarki Wodnej – Państwowego Instytutu Badawczego zostały przetworzone.

Dane źródłowe można odnaleźć na stronie https://dane.imgw.pl